Главная страница
METAR-TAF:

METAR-TAF

Аэропорты :

Витебск, Белоруссия

широта: 55-10N, долгота: 030-13E, высота над уровнем моря: 176 м

Текущие метеонаблюдения

Эта сводка был подготовлена 4 часа и 4 минут назад, в 18:30 UTC
Ветер 4 Узел от восточно-северо-восточный
Температура 18°C
Влажность 83%
Давление 1021 hPa
Видимость: 9000 м

METAR: UMII 171830Z 07002MPS 9000 NSC 18/15 Q1021 R23/D TEMPO 2000 BR SCT005

Время: 01:34 (22:34 UTC)

Прогноз

Эта сводка был подготовлена 5 часа и 29 минут назад, в 17:05 UTC
Прогноз действительный с 17-го 18 UTC до 18-го 03 UTC
Ветер 6 Узел от восточный
Видимость: 6000 м
Отдельные облака на высоте 2000 фута
временами
С 17-го 21 UTC до 18-го 03 UTC
Видимость: 0700 м
на высоте 200 фута
туман

TAF: UMII 171705Z 1718/1803 08003MPS 6000 SCT020 TEMPO 1721/1803 0700 FG VV002

Метеонаблюдения и прогнозы для более 4000 аэропортов (сводки METAR и TAF).

Имеющиеся станции представлены на карте желтыми и красными точками.

Чтобы увидеть название станции, наведите на нее мышь.

Затем щелкните, чтобы увидеть метеонаблюдения и метеопрогнозы.

Управление картой: чтобы увеличить масштаб, щелкните зеленые кнопки с черным крестиком; чтобы уменьшить масштаб, щелкните зеленую кнопку с тире; для просмотра соседних карт щелкайте зеленые стрелки.


METAR-TAF: